sensor_id;sensor_type;location;lat;lon;timestamp;P1;durP1;ratioP1;P2;durP2;ratioP2
49392;SDS011;35268;42.642;23.308;2023-04-12T00:00:31;11.27;;;7.10;;
49392;SDS011;35268;42.642;23.308;2023-04-12T00:02:57;13.70;;;7.93;;
49392;SDS011;35268;42.642;23.308;2023-04-12T00:05:23;13.18;;;7.30;;
49392;SDS011;35268;42.642;23.308;2023-04-12T00:07:51;17.27;;;8.38;;
49392;SDS011;35268;42.642;23.308;2023-04-12T00:10:19;22.48;;;7.57;;
49392;SDS011;35268;42.642;23.308;2023-04-12T00:12:45;14.43;;;8.32;;
49392;SDS011;35268;42.642;23.308;2023-04-12T00:15:11;13.88;;;8.00;;
49392;SDS011;35268;42.642;23.308;2023-04-12T00:17:37;15.43;;;8.35;;
49392;SDS011;35268;42.642;23.308;2023-04-12T00:20:03;16.02;;;8.05;;
49392;SDS011;35268;42.642;23.308;2023-04-12T00:22:36;14.55;;;8.05;;
49392;SDS011;35268;42.642;23.308;2023-04-12T00:25:02;15.82;;;8.00;;
49392;SDS011;35268;42.642;23.308;2023-04-12T00:27:28;16.23;;;8.27;;
49392;SDS011;35268;42.642;23.308;2023-04-12T00:29:53;11.45;;;7.43;;
49392;SDS011;35268;42.642;23.308;2023-04-12T00:32:19;15.85;;;9.27;;
49392;SDS011;35268;42.642;23.308;2023-04-12T00:34:44;14.02;;;7.80;;
49392;SDS011;35268;42.642;23.308;2023-04-12T00:37:10;15.43;;;8.48;;
49392;SDS011;35268;42.642;23.308;2023-04-12T00:39:35;19.50;;;9.05;;
49392;SDS011;35268;42.642;23.308;2023-04-12T00:42:03;14.05;;;8.23;;
49392;SDS011;35268;42.642;23.308;2023-04-12T00:44:30;17.45;;;9.50;;
49392;SDS011;35268;42.642;23.308;2023-04-12T00:46:56;19.17;;;10.25;;
49392;SDS011;35268;42.642;23.308;2023-04-12T00:49:23;16.83;;;8.68;;
49392;SDS011;35268;42.642;23.308;2023-04-12T00:51:53;16.08;;;8.07;;
49392;SDS011;35268;42.642;23.308;2023-04-12T00:54:19;16.67;;;9.38;;
49392;SDS011;35268;42.642;23.308;2023-04-12T00:56:46;16.58;;;7.60;;
49392;SDS011;35268;42.642;23.308;2023-04-12T00:59:12;17.02;;;8.85;;
49392;SDS011;35268;42.642;23.308;2023-04-12T01:01:38;17.38;;;8.50;;
49392;SDS011;35268;42.642;23.308;2023-04-12T01:04:05;15.10;;;8.38;;
49392;SDS011;35268;42.642;23.308;2023-04-12T01:15:03;16.27;;;9.13;;
49392;SDS011;35268;42.642;23.308;2023-04-12T01:17:34;15.75;;;8.82;;
49392;SDS011;35268;42.642;23.308;2023-04-12T01:20:08;17.17;;;8.77;;
49392;SDS011;35268;42.642;23.308;2023-04-12T01:28:10;18.15;;;9.15;;
49392;SDS011;35268;42.642;23.308;2023-04-12T01:30:40;16.45;;;8.80;;
49392;SDS011;35268;42.642;23.308;2023-04-12T01:33:08;17.42;;;8.95;;
49392;SDS011;35268;42.642;23.308;2023-04-12T01:35:35;15.90;;;8.77;;
49392;SDS011;35268;42.642;23.308;2023-04-12T01:38:02;15.00;;;9.40;;
49392;SDS011;35268;42.642;23.308;2023-04-12T01:40:28;18.20;;;9.07;;
49392;SDS011;35268;42.642;23.308;2023-04-12T01:45:34;19.90;;;9.25;;
49392;SDS011;35268;42.642;23.308;2023-04-12T01:48:00;18.58;;;9.70;;
49392;SDS011;35268;42.642;23.308;2023-04-12T01:50:30;19.48;;;8.85;;
49392;SDS011;35268;42.642;23.308;2023-04-12T01:55:42;20.20;;;9.00;;
49392;SDS011;35268;42.642;23.308;2023-04-12T01:58:12;14.98;;;8.20;;
49392;SDS011;35268;42.642;23.308;2023-04-12T02:00:40;16.08;;;10.10;;
49392;SDS011;35268;42.642;23.308;2023-04-12T02:03:08;16.08;;;8.80;;
49392;SDS011;35268;42.642;23.308;2023-04-12T02:05:34;15.93;;;8.82;;
49392;SDS011;35268;42.642;23.308;2023-04-12T02:08:01;18.10;;;9.40;;
49392;SDS011;35268;42.642;23.308;2023-04-12T02:10:28;16.63;;;8.90;;
49392;SDS011;35268;42.642;23.308;2023-04-12T02:12:58;21.05;;;9.20;;
49392;SDS011;35268;42.642;23.308;2023-04-12T02:15:24;20.52;;;9.50;;
49392;SDS011;35268;42.642;23.308;2023-04-12T02:17:51;17.48;;;9.77;;
49392;SDS011;35268;42.642;23.308;2023-04-12T02:20:18;16.55;;;9.90;;
49392;SDS011;35268;42.642;23.308;2023-04-12T02:22:44;16.77;;;8.98;;
49392;SDS011;35268;42.642;23.308;2023-04-12T02:25:10;18.92;;;9.80;;
49392;SDS011;35268;42.642;23.308;2023-04-12T02:27:36;18.52;;;9.70;;
49392;SDS011;35268;42.642;23.308;2023-04-12T02:30:01;18.58;;;9.80;;
49392;SDS011;35268;42.642;23.308;2023-04-12T02:32:28;18.90;;;9.25;;
49392;SDS011;35268;42.642;23.308;2023-04-12T02:34:54;15.95;;;9.10;;
49392;SDS011;35268;42.642;23.308;2023-04-12T02:37:24;19.15;;;10.45;;
49392;SDS011;35268;42.642;23.308;2023-04-12T02:39:51;20.42;;;10.25;;
49392;SDS011;35268;42.642;23.308;2023-04-12T02:42:21;20.05;;;9.88;;
49392;SDS011;35268;42.642;23.308;2023-04-12T02:44:46;15.02;;;9.30;;
49392;SDS011;35268;42.642;23.308;2023-04-12T02:47:12;19.80;;;10.30;;
49392;SDS011;35268;42.642;23.308;2023-04-12T02:49:38;18.73;;;8.63;;
49392;SDS011;35268;42.642;23.308;2023-04-12T02:52:04;16.30;;;9.40;;
49392;SDS011;35268;42.642;23.308;2023-04-12T02:54:29;16.23;;;8.82;;
49392;SDS011;35268;42.642;23.308;2023-04-12T02:56:55;13.95;;;8.73;;
49392;SDS011;35268;42.642;23.308;2023-04-12T02:59:20;17.38;;;8.88;;
49392;SDS011;35268;42.642;23.308;2023-04-12T03:01:45;17.50;;;9.52;;
49392;SDS011;35268;42.642;23.308;2023-04-12T03:04:11;19.15;;;9.57;;
49392;SDS011;35268;42.642;23.308;2023-04-12T03:06:36;16.88;;;8.70;;
49392;SDS011;35268;42.642;23.308;2023-04-12T03:09:07;16.92;;;9.15;;
49392;SDS011;35268;42.642;23.308;2023-04-12T03:11:32;20.73;;;10.32;;
49392;SDS011;35268;42.642;23.308;2023-04-12T03:13:58;18.85;;;10.88;;
49392;SDS011;35268;42.642;23.308;2023-04-12T03:16:25;21.17;;;11.48;;
49392;SDS011;35268;42.642;23.308;2023-04-12T03:18:53;21.45;;;10.73;;
49392;SDS011;35268;42.642;23.308;2023-04-12T03:21:20;22.08;;;12.27;;
49392;SDS011;35268;42.642;23.308;2023-04-12T03:23:46;24.45;;;12.50;;
49392;SDS011;35268;42.642;23.308;2023-04-12T03:26:11;24.00;;;12.57;;
49392;SDS011;35268;42.642;23.308;2023-04-12T03:28:37;27.88;;;13.60;;
49392;SDS011;35268;42.642;23.308;2023-04-12T03:31:03;26.52;;;12.45;;
49392;SDS011;35268;42.642;23.308;2023-04-12T03:33:28;24.05;;;12.23;;
49392;SDS011;35268;42.642;23.308;2023-04-12T03:35:54;21.67;;;11.77;;
49392;SDS011;35268;42.642;23.308;2023-04-12T03:38:20;19.98;;;11.63;;
49392;SDS011;35268;42.642;23.308;2023-04-12T03:40:45;22.38;;;11.82;;
49392;SDS011;35268;42.642;23.308;2023-04-12T03:43:11;20.58;;;11.65;;
49392;SDS011;35268;42.642;23.308;2023-04-12T03:45:36;22.77;;;12.27;;
49392;SDS011;35268;42.642;23.308;2023-04-12T03:48:02;19.15;;;11.45;;
49392;SDS011;35268;42.642;23.308;2023-04-12T03:50:28;17.98;;;10.63;;
49392;SDS011;35268;42.642;23.308;2023-04-12T03:52:55;24.55;;;12.15;;
49392;SDS011;35268;42.642;23.308;2023-04-12T03:55:21;19.38;;;10.70;;
49392;SDS011;35268;42.642;23.308;2023-04-12T03:57:46;21.35;;;11.98;;
49392;SDS011;35268;42.642;23.308;2023-04-12T04:00:12;20.90;;;12.23;;
49392;SDS011;35268;42.642;23.308;2023-04-12T04:02:38;27.27;;;13.50;;
49392;SDS011;35268;42.642;23.308;2023-04-12T04:05:04;19.85;;;11.70;;
49392;SDS011;35268;42.642;23.308;2023-04-12T04:07:30;20.58;;;11.55;;
49392;SDS011;35268;42.642;23.308;2023-04-12T04:09:58;20.73;;;11.55;;
49392;SDS011;35268;42.642;23.308;2023-04-12T04:12:24;20.48;;;11.65;;
49392;SDS011;35268;42.642;23.308;2023-04-12T04:14:49;21.50;;;11.90;;
49392;SDS011;35268;42.642;23.308;2023-04-12T04:17:15;19.75;;;11.40;;
49392;SDS011;35268;42.642;23.308;2023-04-12T04:19:40;23.38;;;11.63;;
49392;SDS011;35268;42.642;23.308;2023-04-12T04:22:06;19.00;;;10.82;;
49392;SDS011;35268;42.642;23.308;2023-04-12T04:24:31;20.13;;;10.98;;
49392;SDS011;35268;42.642;23.308;2023-04-12T04:26:58;24.08;;;11.63;;
49392;SDS011;35268;42.642;23.308;2023-04-12T04:29:23;21.77;;;11.48;;
49392;SDS011;35268;42.642;23.308;2023-04-12T04:31:49;17.48;;;10.95;;
49392;SDS011;35268;42.642;23.308;2023-04-12T04:34:15;18.20;;;10.82;;
49392;SDS011;35268;42.642;23.308;2023-04-12T04:36:42;21.90;;;11.80;;
49392;SDS011;35268;42.642;23.308;2023-04-12T04:39:07;20.65;;;10.85;;
49392;SDS011;35268;42.642;23.308;2023-04-12T04:41:33;19.52;;;11.60;;
49392;SDS011;35268;42.642;23.308;2023-04-12T04:44:03;16.30;;;9.90;;
49392;SDS011;35268;42.642;23.308;2023-04-12T04:46:33;15.85;;;9.18;;
49392;SDS011;35268;42.642;23.308;2023-04-12T04:49:01;16.90;;;9.65;;
49392;SDS011;35268;42.642;23.308;2023-04-12T04:51:27;18.45;;;9.15;;
49392;SDS011;35268;42.642;23.308;2023-04-12T04:53:53;14.95;;;8.27;;
49392;SDS011;35268;42.642;23.308;2023-04-12T04:56:18;14.43;;;8.20;;
49392;SDS011;35268;42.642;23.308;2023-04-12T04:58:47;16.17;;;8.65;;
49392;SDS011;35268;42.642;23.308;2023-04-12T05:01:12;16.60;;;8.75;;
49392;SDS011;35268;42.642;23.308;2023-04-12T05:03:40;13.10;;;6.65;;
49392;SDS011;35268;42.642;23.308;2023-04-12T05:06:08;15.48;;;8.15;;
49392;SDS011;35268;42.642;23.308;2023-04-12T05:08:34;11.57;;;6.38;;
49392;SDS011;35268;42.642;23.308;2023-04-12T05:10:59;15.25;;;8.25;;
49392;SDS011;35268;42.642;23.308;2023-04-12T05:13:25;12.07;;;5.78;;
49392;SDS011;35268;42.642;23.308;2023-04-12T05:15:50;13.23;;;6.68;;
49392;SDS011;35268;42.642;23.308;2023-04-12T05:18:16;12.55;;;7.55;;
49392;SDS011;35268;42.642;23.308;2023-04-12T05:20:44;12.02;;;6.13;;
49392;SDS011;35268;42.642;23.308;2023-04-12T05:23:12;11.93;;;6.28;;
49392;SDS011;35268;42.642;23.308;2023-04-12T05:25:42;9.82;;;5.63;;
49392;SDS011;35268;42.642;23.308;2023-04-12T05:28:08;11.57;;;5.45;;
49392;SDS011;35268;42.642;23.308;2023-04-12T05:30:38;11.52;;;5.15;;
49392;SDS011;35268;42.642;23.308;2023-04-12T05:33:04;9.45;;;5.68;;
49392;SDS011;35268;42.642;23.308;2023-04-12T05:35:29;12.75;;;5.20;;
49392;SDS011;35268;42.642;23.308;2023-04-12T05:37:55;10.10;;;5.35;;
49392;SDS011;35268;42.642;23.308;2023-04-12T05:40:20;8.40;;;5.13;;
49392;SDS011;35268;42.642;23.308;2023-04-12T05:42:46;9.30;;;4.75;;
49392;SDS011;35268;42.642;23.308;2023-04-12T05:45:11;9.45;;;4.30;;
49392;SDS011;35268;42.642;23.308;2023-04-12T05:47:37;11.20;;;4.53;;
49392;SDS011;35268;42.642;23.308;2023-04-12T05:50:02;10.45;;;4.38;;
49392;SDS011;35268;42.642;23.308;2023-04-12T05:52:28;7.05;;;3.53;;
49392;SDS011;35268;42.642;23.308;2023-04-12T05:54:53;7.63;;;4.15;;
49392;SDS011;35268;42.642;23.308;2023-04-12T05:57:18;7.63;;;4.10;;
49392;SDS011;35268;42.642;23.308;2023-04-12T05:59:44;7.68;;;4.03;;
49392;SDS011;35268;42.642;23.308;2023-04-12T06:02:09;7.70;;;4.00;;
49392;SDS011;35268;42.642;23.308;2023-04-12T06:04:35;5.75;;;2.90;;
49392;SDS011;35268;42.642;23.308;2023-04-12T06:07:02;8.35;;;3.20;;
49392;SDS011;35268;42.642;23.308;2023-04-12T06:09:29;7.47;;;3.70;;
49392;SDS011;35268;42.642;23.308;2023-04-12T06:11:55;5.85;;;3.33;;
49392;SDS011;35268;42.642;23.308;2023-04-12T06:14:21;5.85;;;3.13;;
49392;SDS011;35268;42.642;23.308;2023-04-12T06:16:46;7.32;;;3.72;;
49392;SDS011;35268;42.642;23.308;2023-04-12T06:19:12;8.55;;;3.63;;
49392;SDS011;35268;42.642;23.308;2023-04-12T06:21:37;8.55;;;4.10;;
49392;SDS011;35268;42.642;23.308;2023-04-12T06:24:03;6.88;;;3.55;;
49392;SDS011;35268;42.642;23.308;2023-04-12T06:26:29;6.32;;;3.83;;
49392;SDS011;35268;42.642;23.308;2023-04-12T06:28:54;7.70;;;3.45;;
49392;SDS011;35268;42.642;23.308;2023-04-12T06:31:20;6.57;;;3.72;;
49392;SDS011;35268;42.642;23.308;2023-04-12T06:33:45;6.43;;;3.35;;
49392;SDS011;35268;42.642;23.308;2023-04-12T06:36:11;5.95;;;3.15;;
49392;SDS011;35268;42.642;23.308;2023-04-12T06:38:38;6.57;;;3.33;;
49392;SDS011;35268;42.642;23.308;2023-04-12T06:41:04;7.60;;;3.28;;
49392;SDS011;35268;42.642;23.308;2023-04-12T06:43:30;5.88;;;3.33;;
49392;SDS011;35268;42.642;23.308;2023-04-12T06:45:56;4.72;;;2.30;;
49392;SDS011;35268;42.642;23.308;2023-04-12T06:48:22;5.35;;;2.80;;
49392;SDS011;35268;42.642;23.308;2023-04-12T06:50:47;6.35;;;3.28;;
49392;SDS011;35268;42.642;23.308;2023-04-12T06:53:13;13.07;;;3.00;;
49392;SDS011;35268;42.642;23.308;2023-04-12T06:55:39;6.43;;;3.03;;
49392;SDS011;35268;42.642;23.308;2023-04-12T06:58:05;5.80;;;3.08;;
49392;SDS011;35268;42.642;23.308;2023-04-12T07:00:30;5.15;;;3.33;;
49392;SDS011;35268;42.642;23.308;2023-04-12T07:02:56;6.85;;;3.13;;
49392;SDS011;35268;42.642;23.308;2023-04-12T07:05:21;4.63;;;2.90;;
49392;SDS011;35268;42.642;23.308;2023-04-12T07:07:47;10.18;;;2.63;;
49392;SDS011;35268;42.642;23.308;2023-04-12T07:10:12;3.97;;;2.17;;
49392;SDS011;35268;42.642;23.308;2023-04-12T07:12:38;6.07;;;2.65;;
49392;SDS011;35268;42.642;23.308;2023-04-12T07:15:04;7.15;;;3.13;;
49392;SDS011;35268;42.642;23.308;2023-04-12T07:17:29;6.05;;;2.97;;
49392;SDS011;35268;42.642;23.308;2023-04-12T07:19:55;6.45;;;3.60;;
49392;SDS011;35268;42.642;23.308;2023-04-12T07:22:20;5.45;;;2.65;;
49392;SDS011;35268;42.642;23.308;2023-04-12T07:24:47;5.35;;;3.28;;
49392;SDS011;35268;42.642;23.308;2023-04-12T07:27:13;6.25;;;3.08;;
49392;SDS011;35268;42.642;23.308;2023-04-12T07:29:39;4.30;;;2.63;;
49392;SDS011;35268;42.642;23.308;2023-04-12T07:32:07;6.70;;;3.10;;
49392;SDS011;35268;42.642;23.308;2023-04-12T07:34:33;5.03;;;3.08;;
49392;SDS011;35268;42.642;23.308;2023-04-12T07:36:58;4.78;;;2.72;;
49392;SDS011;35268;42.642;23.308;2023-04-12T07:39:25;4.38;;;3.03;;
49392;SDS011;35268;42.642;23.308;2023-04-12T07:41:51;7.00;;;2.78;;
49392;SDS011;35268;42.642;23.308;2023-04-12T07:44:17;5.85;;;3.58;;
49392;SDS011;35268;42.642;23.308;2023-04-12T07:46:42;5.32;;;2.78;;
49392;SDS011;35268;42.642;23.308;2023-04-12T07:49:08;5.65;;;2.58;;
49392;SDS011;35268;42.642;23.308;2023-04-12T07:51:34;5.82;;;3.22;;
49392;SDS011;35268;42.642;23.308;2023-04-12T07:54:00;5.03;;;3.00;;
49392;SDS011;35268;42.642;23.308;2023-04-12T07:56:26;6.45;;;2.80;;
49392;SDS011;35268;42.642;23.308;2023-04-12T07:58:52;5.47;;;2.78;;
49392;SDS011;35268;42.642;23.308;2023-04-12T08:01:17;6.43;;;2.05;;
49392;SDS011;35268;42.642;23.308;2023-04-12T08:03:42;5.53;;;2.95;;
49392;SDS011;35268;42.642;23.308;2023-04-12T08:06:08;5.32;;;1.95;;
49392;SDS011;35268;42.642;23.308;2023-04-12T08:08:34;2.60;;;1.85;;
49392;SDS011;35268;42.642;23.308;2023-04-12T08:10:59;3.55;;;2.00;;
49392;SDS011;35268;42.642;23.308;2023-04-12T08:13:26;5.22;;;2.13;;
49392;SDS011;35268;42.642;23.308;2023-04-12T08:15:52;3.17;;;1.70;;
49392;SDS011;35268;42.642;23.308;2023-04-12T08:18:17;3.17;;;1.50;;
49392;SDS011;35268;42.642;23.308;2023-04-12T08:20:43;6.00;;;1.42;;
49392;SDS011;35268;42.642;23.308;2023-04-12T08:23:09;3.72;;;1.73;;
49392;SDS011;35268;42.642;23.308;2023-04-12T08:25:35;4.65;;;1.63;;
49392;SDS011;35268;42.642;23.308;2023-04-12T08:28:01;9.00;;;1.40;;
49392;SDS011;35268;42.642;23.308;2023-04-12T08:30:27;2.75;;;1.63;;
49392;SDS011;35268;42.642;23.308;2023-04-12T08:32:53;2.70;;;1.13;;
49392;SDS011;35268;42.642;23.308;2023-04-12T08:35:18;2.88;;;1.50;;
49392;SDS011;35268;42.642;23.308;2023-04-12T08:37:44;1.85;;;1.00;;
49392;SDS011;35268;42.642;23.308;2023-04-12T08:40:10;2.83;;;1.33;;
49392;SDS011;35268;42.642;23.308;2023-04-12T08:42:36;2.97;;;1.50;;
49392;SDS011;35268;42.642;23.308;2023-04-12T08:45:05;2.85;;;1.40;;
49392;SDS011;35268;42.642;23.308;2023-04-12T08:47:36;3.22;;;1.42;;
49392;SDS011;35268;42.642;23.308;2023-04-12T08:50:03;5.57;;;1.50;;
49392;SDS011;35268;42.642;23.308;2023-04-12T08:52:33;2.65;;;1.30;;
49392;SDS011;35268;42.642;23.308;2023-04-12T08:55:03;2.60;;;1.20;;
49392;SDS011;35268;42.642;23.308;2023-04-12T08:57:30;3.63;;;1.33;;
49392;SDS011;35268;42.642;23.308;2023-04-12T08:59:59;3.22;;;1.30;;
49392;SDS011;35268;42.642;23.308;2023-04-12T09:02:26;4.32;;;1.20;;
49392;SDS011;35268;42.642;23.308;2023-04-12T09:04:52;2.40;;;1.33;;
49392;SDS011;35268;42.642;23.308;2023-04-12T09:07:18;2.00;;;1.20;;
49392;SDS011;35268;42.642;23.308;2023-04-12T09:09:47;3.60;;;1.35;;
49392;SDS011;35268;42.642;23.308;2023-04-12T09:12:13;5.70;;;1.40;;
49392;SDS011;35268;42.642;23.308;2023-04-12T09:14:39;11.48;;;1.50;;
49392;SDS011;35268;42.642;23.308;2023-04-12T09:17:22;2.35;;;1.40;;
49392;SDS011;35268;42.642;23.308;2023-04-12T09:19:51;3.60;;;1.50;;
49392;SDS011;35268;42.642;23.308;2023-04-12T09:22:17;3.63;;;1.33;;
49392;SDS011;35268;42.642;23.308;2023-04-12T09:24:46;5.18;;;1.67;;
49392;SDS011;35268;42.642;23.308;2023-04-12T09:27:14;2.33;;;1.20;;
49392;SDS011;35268;42.642;23.308;2023-04-12T09:29:40;2.65;;;1.23;;
49392;SDS011;35268;42.642;23.308;2023-04-12T09:32:06;4.43;;;1.35;;
49392;SDS011;35268;42.642;23.308;2023-04-12T09:34:33;3.15;;;1.27;;
49392;SDS011;35268;42.642;23.308;2023-04-12T09:37:11;3.42;;;1.60;;
49392;SDS011;35268;42.642;23.308;2023-04-12T09:39:40;3.17;;;1.05;;
49392;SDS011;35268;42.642;23.308;2023-04-12T09:42:07;3.80;;;1.50;;
49392;SDS011;35268;42.642;23.308;2023-04-12T09:44:33;4.47;;;1.50;;
49392;SDS011;35268;42.642;23.308;2023-04-12T09:47:00;5.18;;;1.77;;
49392;SDS011;35268;42.642;23.308;2023-04-12T09:52:02;2.92;;;1.20;;
49392;SDS011;35268;42.642;23.308;2023-04-12T09:54:27;3.33;;;1.20;;
49392;SDS011;35268;42.642;23.308;2023-04-12T09:56:53;3.10;;;1.20;;
49392;SDS011;35268;42.642;23.308;2023-04-12T09:59:22;3.78;;;1.27;;
49392;SDS011;35268;42.642;23.308;2023-04-12T10:01:51;4.20;;;1.38;;
49392;SDS011;35268;42.642;23.308;2023-04-12T10:04:18;3.05;;;1.13;;
49392;SDS011;35268;42.642;23.308;2023-04-12T10:06:43;5.43;;;1.05;;
49392;SDS011;35268;42.642;23.308;2023-04-12T10:09:10;2.03;;;1.00;;
49392;SDS011;35268;42.642;23.308;2023-04-12T10:11:37;3.15;;;1.20;;
49392;SDS011;35268;42.642;23.308;2023-04-12T10:14:05;4.18;;;1.00;;
49392;SDS011;35268;42.642;23.308;2023-04-12T10:16:34;5.35;;;1.20;;
49392;SDS011;35268;42.642;23.308;2023-04-12T10:19:01;3.40;;;1.15;;
49392;SDS011;35268;42.642;23.308;2023-04-12T10:21:27;7.72;;;1.38;;
49392;SDS011;35268;42.642;23.308;2023-04-12T10:23:53;5.65;;;1.02;;
49392;SDS011;35268;42.642;23.308;2023-04-12T10:26:19;4.65;;;1.02;;
49392;SDS011;35268;42.642;23.308;2023-04-12T10:28:45;1.98;;;0.80;;
49392;SDS011;35268;42.642;23.308;2023-04-12T10:31:27;1.77;;;0.80;;
49392;SDS011;35268;42.642;23.308;2023-04-12T10:33:56;1.38;;;0.88;;
49392;SDS011;35268;42.642;23.308;2023-04-12T10:39:33;2.22;;;1.00;;
49392;SDS011;35268;42.642;23.308;2023-04-12T10:42:18;3.53;;;1.13;;
49392;SDS011;35268;42.642;23.308;2023-04-12T10:44:47;1.73;;;0.93;;
49392;SDS011;35268;42.642;23.308;2023-04-12T10:55:44;2.92;;;0.90;;
49392;SDS011;35268;42.642;23.308;2023-04-12T10:58:10;1.35;;;0.88;;
49392;SDS011;35268;42.642;23.308;2023-04-12T11:03:22;1.45;;;0.80;;
49392;SDS011;35268;42.642;23.308;2023-04-12T11:06:01;2.88;;;1.50;;
49392;SDS011;35268;42.642;23.308;2023-04-12T11:08:28;5.18;;;1.00;;
49392;SDS011;35268;42.642;23.308;2023-04-12T11:10:58;5.45;;;1.05;;
49392;SDS011;35268;42.642;23.308;2023-04-12T11:13:28;1.80;;;1.00;;
49392;SDS011;35268;42.642;23.308;2023-04-12T11:16:02;4.37;;;1.57;;
49392;SDS011;35268;42.642;23.308;2023-04-12T11:18:29;6.57;;;1.00;;
49392;SDS011;35268;42.642;23.308;2023-04-12T11:20:55;5.45;;;0.90;;
49392;SDS011;35268;42.642;23.308;2023-04-12T11:23:22;2.78;;;0.80;;
49392;SDS011;35268;42.642;23.308;2023-04-12T11:25:51;1.83;;;0.63;;
49392;SDS011;35268;42.642;23.308;2023-04-12T11:28:19;3.63;;;0.80;;
49392;SDS011;35268;42.642;23.308;2023-04-12T11:30:51;1.63;;;0.70;;
49392;SDS011;35268;42.642;23.308;2023-04-12T11:38:36;3.33;;;1.58;;
49392;SDS011;35268;42.642;23.308;2023-04-12T11:41:03;5.07;;;0.98;;
49392;SDS011;35268;42.642;23.308;2023-04-12T11:43:31;3.25;;;0.68;;
49392;SDS011;35268;42.642;23.308;2023-04-12T11:45:57;4.28;;;0.90;;
49392;SDS011;35268;42.642;23.308;2023-04-12T11:48:27;1.50;;;0.73;;
49392;SDS011;35268;42.642;23.308;2023-04-12T11:50:55;3.80;;;0.75;;
49392;SDS011;35268;42.642;23.308;2023-04-12T11:53:25;1.15;;;0.70;;
49392;SDS011;35268;42.642;23.308;2023-04-12T11:55:53;2.20;;;0.80;;
49392;SDS011;35268;42.642;23.308;2023-04-12T11:58:23;0.98;;;0.60;;
49392;SDS011;35268;42.642;23.308;2023-04-12T12:00:51;1.60;;;0.63;;
49392;SDS011;35268;42.642;23.308;2023-04-12T12:03:17;3.58;;;0.90;;
49392;SDS011;35268;42.642;23.308;2023-04-12T12:05:43;1.48;;;0.60;;
49392;SDS011;35268;42.642;23.308;2023-04-12T12:08:10;3.42;;;0.80;;
49392;SDS011;35268;42.642;23.308;2023-04-12T12:10:37;4.95;;;1.17;;
49392;SDS011;35268;42.642;23.308;2023-04-12T12:13:10;2.97;;;0.80;;
49392;SDS011;35268;42.642;23.308;2023-04-12T12:15:36;3.88;;;0.80;;
49392;SDS011;35268;42.642;23.308;2023-04-12T12:18:02;2.05;;;0.70;;
49392;SDS011;35268;42.642;23.308;2023-04-12T12:20:27;2.70;;;0.90;;
49392;SDS011;35268;42.642;23.308;2023-04-12T12:22:53;1.85;;;0.63;;
49392;SDS011;35268;42.642;23.308;2023-04-12T12:25:19;1.45;;;0.65;;
49392;SDS011;35268;42.642;23.308;2023-04-12T12:27:55;3.25;;;1.25;;
49392;SDS011;35268;42.642;23.308;2023-04-12T12:30:21;6.70;;;1.55;;
49392;SDS011;35268;42.642;23.308;2023-04-12T12:32:48;2.22;;;0.98;;
49392;SDS011;35268;42.642;23.308;2023-04-12T12:35:14;1.95;;;0.82;;
49392;SDS011;35268;42.642;23.308;2023-04-12T12:37:49;5.35;;;0.98;;
49392;SDS011;35268;42.642;23.308;2023-04-12T12:40:29;2.53;;;0.70;;
49392;SDS011;35268;42.642;23.308;2023-04-12T12:45:45;5.57;;;1.08;;
49392;SDS011;35268;42.642;23.308;2023-04-12T12:48:11;4.18;;;0.80;;
49392;SDS011;35268;42.642;23.308;2023-04-12T12:50:37;2.58;;;0.60;;
49392;SDS011;35268;42.642;23.308;2023-04-12T12:53:03;2.53;;;0.70;;
49392;SDS011;35268;42.642;23.308;2023-04-12T12:55:32;2.10;;;0.80;;
49392;SDS011;35268;42.642;23.308;2023-04-12T12:58:01;4.97;;;1.00;;
49392;SDS011;35268;42.642;23.308;2023-04-12T13:00:27;2.17;;;0.88;;
49392;SDS011;35268;42.642;23.308;2023-04-12T13:02:53;2.38;;;0.77;;
49392;SDS011;35268;42.642;23.308;2023-04-12T13:05:19;2.22;;;0.90;;
49392;SDS011;35268;42.642;23.308;2023-04-12T13:07:46;2.78;;;1.27;;
49392;SDS011;35268;42.642;23.308;2023-04-12T13:10:12;1.50;;;0.70;;
49392;SDS011;35268;42.642;23.308;2023-04-12T13:12:37;1.25;;;0.75;;
49392;SDS011;35268;42.642;23.308;2023-04-12T13:15:03;5.57;;;1.15;;
49392;SDS011;35268;42.642;23.308;2023-04-12T13:17:29;1.52;;;0.75;;
49392;SDS011;35268;42.642;23.308;2023-04-12T13:19:55;1.42;;;0.68;;
49392;SDS011;35268;42.642;23.308;2023-04-12T13:22:21;2.53;;;0.70;;
49392;SDS011;35268;42.642;23.308;2023-04-12T13:24:48;1.40;;;0.77;;
49392;SDS011;35268;42.642;23.308;2023-04-12T13:27:16;1.92;;;0.60;;
49392;SDS011;35268;42.642;23.308;2023-04-12T13:29:42;2.67;;;0.70;;
49392;SDS011;35268;42.642;23.308;2023-04-12T13:32:10;5.20;;;0.80;;
49392;SDS011;35268;42.642;23.308;2023-04-12T13:34:39;1.17;;;0.68;;
49392;SDS011;35268;42.642;23.308;2023-04-12T13:37:05;5.63;;;0.95;;
49392;SDS011;35268;42.642;23.308;2023-04-12T13:39:31;4.25;;;0.80;;
49392;SDS011;35268;42.642;23.308;2023-04-12T13:41:58;1.50;;;0.70;;
49392;SDS011;35268;42.642;23.308;2023-04-12T13:44:23;4.18;;;0.90;;
49392;SDS011;35268;42.642;23.308;2023-04-12T13:46:51;2.35;;;0.80;;
49392;SDS011;35268;42.642;23.308;2023-04-12T13:49:17;2.42;;;0.88;;
49392;SDS011;35268;42.642;23.308;2023-04-12T13:51:42;5.72;;;0.95;;
49392;SDS011;35268;42.642;23.308;2023-04-12T13:54:08;0.93;;;0.57;;
49392;SDS011;35268;42.642;23.308;2023-04-12T13:56:33;1.48;;;0.82;;
49392;SDS011;35268;42.642;23.308;2023-04-12T13:58:59;4.45;;;0.70;;
49392;SDS011;35268;42.642;23.308;2023-04-12T14:01:24;2.65;;;0.82;;
49392;SDS011;35268;42.642;23.308;2023-04-12T14:03:51;1.85;;;0.80;;
49392;SDS011;35268;42.642;23.308;2023-04-12T14:06:20;1.48;;;0.63;;
49392;SDS011;35268;42.642;23.308;2023-04-12T14:08:46;6.20;;;1.13;;
49392;SDS011;35268;42.642;23.308;2023-04-12T14:11:12;3.60;;;0.77;;
49392;SDS011;35268;42.642;23.308;2023-04-12T14:13:37;1.48;;;0.60;;
49392;SDS011;35268;42.642;23.308;2023-04-12T14:16:03;1.35;;;0.75;;
49392;SDS011;35268;42.642;23.308;2023-04-12T14:18:29;1.60;;;0.50;;
49392;SDS011;35268;42.642;23.308;2023-04-12T14:20:54;1.52;;;0.80;;
49392;SDS011;35268;42.642;23.308;2023-04-12T14:23:21;1.40;;;0.70;;
49392;SDS011;35268;42.642;23.308;2023-04-12T14:25:49;4.75;;;0.57;;
49392;SDS011;35268;42.642;23.308;2023-04-12T14:28:14;2.60;;;1.00;;
49392;SDS011;35268;42.642;23.308;2023-04-12T14:30:40;4.05;;;0.90;;
49392;SDS011;35268;42.642;23.308;2023-04-12T14:33:06;1.88;;;0.77;;
49392;SDS011;35268;42.642;23.308;2023-04-12T14:35:32;1.45;;;0.57;;
49392;SDS011;35268;42.642;23.308;2023-04-12T14:37:57;2.13;;;0.73;;
49392;SDS011;35268;42.642;23.308;2023-04-12T14:40:23;2.08;;;0.68;;
49392;SDS011;35268;42.642;23.308;2023-04-12T14:42:51;2.33;;;0.90;;
49392;SDS011;35268;42.642;23.308;2023-04-12T14:45:16;3.42;;;1.02;;
49392;SDS011;35268;42.642;23.308;2023-04-12T14:47:44;3.08;;;1.00;;
49392;SDS011;35268;42.642;23.308;2023-04-12T14:50:10;7.75;;;0.70;;
49392;SDS011;35268;42.642;23.308;2023-04-12T14:52:35;3.20;;;0.65;;
49392;SDS011;35268;42.642;23.308;2023-04-12T14:55:01;2.65;;;0.70;;
49392;SDS011;35268;42.642;23.308;2023-04-12T14:57:26;2.92;;;0.80;;
49392;SDS011;35268;42.642;23.308;2023-04-12T14:59:52;4.93;;;0.90;;
49392;SDS011;35268;42.642;23.308;2023-04-12T15:02:17;1.17;;;0.60;;
49392;SDS011;35268;42.642;23.308;2023-04-12T15:04:43;1.40;;;0.80;;
49392;SDS011;35268;42.642;23.308;2023-04-12T15:07:11;3.92;;;0.90;;
49392;SDS011;35268;42.642;23.308;2023-04-12T15:09:36;2.17;;;0.80;;